AFR17WA LIRF-LFPG
Flight info
| Callsign | AFR17WA |
|---|---|
| Flight time | 1h 49m |
| Altitude | 36000 |
| Route | XENOL5AXNEMBO7A/25 NEMBO DCT GOVGO DCT AOSTA DCT ORSUD DCT MOLUS DCT UNKIR DCT GIVRI DCT TINIL |
| Aircraft | A320/M-SDE3FGHIRWY/LB1 |
Departure
| Time | 2026-05-08 15:53 |
|---|---|
| Airport | Rome–Fiumicino Leonardo da Vinci International Airport (LIRF) |
Arrival
| Time | 2026-05-08 17:43 |
|---|---|
| Airport | Charles de Gaulle International Airport (LFPG) |
| Time | Latitude | Longitude | Altitude | Speed | Heading |
|---|---|---|---|---|---|
| 2026-05-08 15:09 | 41.79615 | 12.25940 | 15 ft | 0 kts | 294° |
| 2026-05-08 15:42 | 41.79612 | 12.25948 | 15 ft | 3 kts | 295° |
| 2026-05-08 15:42 | 41.79603 | 12.25971 | 15 ft | 3 kts | 303° |
| 2026-05-08 15:43 | 41.79591 | 12.25993 | 17 ft | 3 kts | 317° |
| 2026-05-08 15:43 | 41.79575 | 12.26008 | 17 ft | 3 kts | 345° |
| 2026-05-08 15:43 | 41.79559 | 12.26009 | 15 ft | 1 kts | 25° |
| 2026-05-08 15:43 | 41.79554 | 12.26006 | 15 ft | 0 kts | 25° |
| 2026-05-08 15:46 | 41.79558 | 12.26008 | 15 ft | 3 kts | 25° |
| 2026-05-08 15:46 | 41.79573 | 12.26018 | 16 ft | 2 kts | 25° |
| 2026-05-08 15:46 | 41.79587 | 12.26027 | 15 ft | 6 kts | 25° |
| 2026-05-08 15:46 | 41.79655 | 12.26069 | 15 ft | 14 kts | 25° |
| 2026-05-08 15:47 | 41.79741 | 12.26106 | 15 ft | 12 kts | 346° |
| 2026-05-08 15:47 | 41.79780 | 12.26029 | 15 ft | 8 kts | 295° |
| 2026-05-08 15:47 | 41.79799 | 12.25977 | 15 ft | 4 kts | 295° |
| 2026-05-08 15:47 | 41.79808 | 12.25950 | 15 ft | 3 kts | 295° |
| 2026-05-08 15:48 | 41.79873 | 12.25829 | 15 ft | 8 kts | 355° |
| 2026-05-08 15:48 | 41.79963 | 12.25877 | 15 ft | 17 kts | 24° |
| 2026-05-08 15:48 | 41.80073 | 12.25945 | 15 ft | 19 kts | 25° |
| 2026-05-08 15:49 | 41.80200 | 12.26026 | 15 ft | 21 kts | 25° |
| 2026-05-08 15:49 | 41.80336 | 12.26110 | 15 ft | 22 kts | 24° |
| 2026-05-08 15:49 | 41.80479 | 12.26189 | 15 ft | 22 kts | 22° |
| 2026-05-08 15:49 | 41.80562 | 12.26357 | 17 ft | 23 kts | 70° |
| 2026-05-08 15:50 | 41.80618 | 12.26561 | 15 ft | 24 kts | 70° |
| 2026-05-08 15:50 | 41.80664 | 12.26725 | 15 ft | 18 kts | 70° |
| 2026-05-08 15:50 | 41.80708 | 12.26886 | 15 ft | 19 kts | 70° |
| 2026-05-08 15:50 | 41.80749 | 12.27024 | 15 ft | 11 kts | 56° |
| 2026-05-08 15:51 | 41.80811 | 12.27040 | 15 ft | 9 kts | 348° |
| 2026-05-08 15:51 | 41.80865 | 12.27016 | 15 ft | 7 kts | 340° |
| 2026-05-08 15:51 | 41.80910 | 12.26994 | 15 ft | 7 kts | 340° |
| 2026-05-08 15:51 | 41.80951 | 12.26952 | 13 ft | 8 kts | 303° |
| 2026-05-08 15:52 | 41.80950 | 12.26890 | 13 ft | 1 kts | 250° |
| 2026-05-08 15:52 | 41.80943 | 12.26866 | 14 ft | 15 kts | 250° |
| 2026-05-08 15:53 | 41.80811 | 12.26399 | 18 ft | 87 kts | 250° |
| 2026-05-08 15:53 | 41.80530 | 12.25386 | 18 ft | 143 kts | 249° |
| 2026-05-08 15:53 | 41.80138 | 12.23956 | 156 ft | 174 kts | 249° |
| 2026-05-08 15:53 | 41.79705 | 12.22407 | 719 ft | 181 kts | 247° |
| 2026-05-08 15:54 | 41.79275 | 12.20805 | 1316 ft | 187 kts | 262° |
| 2026-05-08 15:54 | 41.79265 | 12.19066 | 1760 ft | 192 kts | 275° |
| 2026-05-08 15:54 | 41.79314 | 12.17181 | 2382 ft | 211 kts | 272° |
| 2026-05-08 15:54 | 41.79302 | 12.15120 | 2668 ft | 235 kts | 270° |
| 2026-05-08 15:55 | 41.79235 | 12.12816 | 3027 ft | 258 kts | 269° |
| 2026-05-08 15:55 | 41.79032 | 12.07793 | 4477 ft | 274 kts | 269° |
| 2026-05-08 15:55 | 41.78991 | 12.05248 | 5421 ft | 274 kts | 270° |
| 2026-05-08 15:56 | 41.78989 | 12.02683 | 6299 ft | 276 kts | 271° |
| 2026-05-08 15:56 | 41.78998 | 12.00108 | 7122 ft | 278 kts | 271° |
| 2026-05-08 15:56 | 41.79007 | 11.97506 | 7920 ft | 281 kts | 271° |
| 2026-05-08 15:56 | 41.79012 | 11.94879 | 8715 ft | 283 kts | 270° |
| 2026-05-08 15:57 | 41.79009 | 11.92222 | 9525 ft | 286 kts | 270° |
| 2026-05-08 15:57 | 41.79003 | 11.89544 | 10284 ft | 290 kts | 270° |
| 2026-05-08 15:57 | 41.78994 | 11.86751 | 10555 ft | 311 kts | 270° |
| 2026-05-08 15:57 | 41.78983 | 11.83753 | 10772 ft | 332 kts | 270° |
| 2026-05-08 15:58 | 41.78973 | 11.80614 | 11319 ft | 340 kts | 270° |
| 2026-05-08 15:58 | 41.78964 | 11.77428 | 11982 ft | 343 kts | 270° |
| 2026-05-08 15:58 | 41.78954 | 11.74219 | 12691 ft | 346 kts | 270° |
| 2026-05-08 15:58 | 41.78942 | 11.70982 | 13386 ft | 349 kts | 270° |
| 2026-05-08 15:59 | 41.78926 | 11.67725 | 14053 ft | 351 kts | 270° |
| 2026-05-08 15:59 | 41.78907 | 11.64440 | 14691 ft | 353 kts | 270° |
| 2026-05-08 15:59 | 41.78887 | 11.61149 | 15338 ft | 354 kts | 270° |
| 2026-05-08 15:59 | 41.79113 | 11.57865 | 15975 ft | 356 kts | 282° |
| 2026-05-08 16:00 | 41.79866 | 11.54703 | 16602 ft | 358 kts | 293° |
| 2026-05-08 16:00 | 41.81126 | 11.51813 | 17224 ft | 362 kts | 305° |
| 2026-05-08 16:00 | 41.82767 | 11.49237 | 17850 ft | 365 kts | 309° |
| 2026-05-08 16:00 | 41.84460 | 11.46666 | 18381 ft | 369 kts | 309° |
| 2026-05-08 16:01 | 41.86163 | 11.44075 | 18889 ft | 372 kts | 309° |
| 2026-05-08 16:01 | 41.87855 | 11.41497 | 19446 ft | 373 kts | 309° |
| 2026-05-08 16:01 | 41.89591 | 11.38843 | 20031 ft | 374 kts | 308° |
| 2026-05-08 16:01 | 41.91306 | 11.36214 | 20621 ft | 374 kts | 308° |
| 2026-05-08 16:02 | 41.93017 | 11.33582 | 21208 ft | 375 kts | 308° |
| 2026-05-08 16:02 | 41.94736 | 11.30941 | 21786 ft | 376 kts | 308° |
| 2026-05-08 16:02 | 41.96435 | 11.28332 | 22300 ft | 377 kts | 307° |
| 2026-05-08 16:02 | 41.98189 | 11.25634 | 22814 ft | 379 kts | 307° |
| 2026-05-08 16:03 | 41.99899 | 11.22999 | 23308 ft | 380 kts | 307° |
| 2026-05-08 16:03 | 42.01643 | 11.20311 | 23761 ft | 382 kts | 307° |
| 2026-05-08 16:03 | 42.03386 | 11.17624 | 23947 ft | 382 kts | 307° |
| 2026-05-08 16:03 | 42.05130 | 11.14934 | 23998 ft | 381 kts | 307° |
| 2026-05-08 16:04 | 42.06874 | 11.12247 | 24002 ft | 381 kts | 307° |
| 2026-05-08 16:04 | 42.08617 | 11.09563 | 24015 ft | 381 kts | 307° |
| 2026-05-08 16:04 | 42.10356 | 11.06879 | 24005 ft | 381 kts | 307° |
| 2026-05-08 16:04 | 42.12118 | 11.04149 | 24005 ft | 380 kts | 307° |
| 2026-05-08 16:05 | 42.13829 | 11.01492 | 24040 ft | 382 kts | 307° |
| 2026-05-08 16:05 | 42.15572 | 10.98782 | 24431 ft | 384 kts | 307° |
| 2026-05-08 16:05 | 42.17322 | 10.96061 | 24821 ft | 385 kts | 307° |
| 2026-05-08 16:05 | 42.19082 | 10.93325 | 25190 ft | 386 kts | 307° |
| 2026-05-08 16:06 | 42.20845 | 10.90582 | 25557 ft | 388 kts | 307° |
| 2026-05-08 16:06 | 42.22613 | 10.87832 | 25911 ft | 389 kts | 307° |
| 2026-05-08 16:06 | 42.24388 | 10.85067 | 26264 ft | 391 kts | 307° |
| 2026-05-08 16:06 | 42.26168 | 10.82291 | 26610 ft | 392 kts | 307° |
| 2026-05-08 16:07 | 42.28073 | 10.79630 | 26951 ft | 398 kts | 314° |
| 2026-05-08 16:07 | 42.30346 | 10.77431 | 27280 ft | 406 kts | 324° |
| 2026-05-08 16:07 | 42.32933 | 10.75809 | 27592 ft | 416 kts | 333° |
| 2026-05-08 16:07 | 42.35655 | 10.74467 | 27908 ft | 417 kts | 333° |
| 2026-05-08 16:08 | 42.38391 | 10.73122 | 28227 ft | 419 kts | 333° |
| 2026-05-08 16:08 | 42.41137 | 10.71772 | 28526 ft | 421 kts | 333° |
| 2026-05-08 16:08 | 42.43892 | 10.70416 | 28826 ft | 422 kts | 333° |
| 2026-05-08 16:08 | 42.46659 | 10.69051 | 29107 ft | 424 kts | 333° |
| 2026-05-08 16:09 | 42.49432 | 10.67679 | 29377 ft | 425 kts | 333° |
| 2026-05-08 16:09 | 42.51274 | 10.66764 | 29556 ft | 426 kts | 333° |
| 2026-05-08 16:09 | 42.55005 | 10.64905 | 29900 ft | 428 kts | 333° |
| 2026-05-08 16:09 | 42.57812 | 10.63506 | 30143 ft | 430 kts | 333° |
| 2026-05-08 16:10 | 42.60623 | 10.62105 | 30334 ft | 431 kts | 333° |
| 2026-05-08 16:10 | 42.63444 | 10.60696 | 30540 ft | 433 kts | 333° |
| 2026-05-08 16:10 | 42.66268 | 10.59284 | 30740 ft | 433 kts | 333° |
| 2026-05-08 16:10 | 42.69101 | 10.57870 | 31011 ft | 433 kts | 333° |
| 2026-05-08 16:11 | 42.71924 | 10.56462 | 31262 ft | 432 kts | 333° |
| 2026-05-08 16:11 | 42.74749 | 10.55050 | 31531 ft | 433 kts | 333° |
| 2026-05-08 16:11 | 42.77570 | 10.53639 | 31800 ft | 432 kts | 333° |
| 2026-05-08 16:11 | 42.80387 | 10.52232 | 32066 ft | 431 kts | 333° |
| 2026-05-08 16:12 | 42.83201 | 10.50823 | 32339 ft | 430 kts | 333° |
| 2026-05-08 16:12 | 42.86010 | 10.49417 | 32606 ft | 430 kts | 333° |
| 2026-05-08 16:12 | 42.88812 | 10.48012 | 32872 ft | 429 kts | 333° |
| 2026-05-08 16:12 | 42.91608 | 10.46607 | 33137 ft | 428 kts | 333° |
| 2026-05-08 16:13 | 42.94401 | 10.45202 | 33399 ft | 428 kts | 333° |
| 2026-05-08 16:13 | 42.97186 | 10.43800 | 33697 ft | 426 kts | 333° |
| 2026-05-08 16:13 | 42.99965 | 10.42400 | 33994 ft | 425 kts | 333° |
| 2026-05-08 16:13 | 43.02737 | 10.41003 | 34226 ft | 424 kts | 333° |
| 2026-05-08 16:14 | 43.05500 | 10.39604 | 34447 ft | 424 kts | 333° |
| 2026-05-08 16:14 | 43.08266 | 10.38199 | 34648 ft | 424 kts | 333° |
| 2026-05-08 16:14 | 43.11033 | 10.36795 | 34840 ft | 424 kts | 333° |
| 2026-05-08 16:14 | 43.13805 | 10.35393 | 35026 ft | 424 kts | 333° |
| 2026-05-08 16:15 | 43.16530 | 10.33890 | 35232 ft | 420 kts | 327° |
| 2026-05-08 16:15 | 43.18991 | 10.31924 | 35427 ft | 412 kts | 319° |
| 2026-05-08 16:15 | 43.21247 | 10.29537 | 35600 ft | 409 kts | 316° |
| 2026-05-08 16:15 | 43.23477 | 10.27119 | 35758 ft | 409 kts | 316° |
| 2026-05-08 16:16 | 43.25718 | 10.24702 | 35933 ft | 410 kts | 316° |
| 2026-05-08 16:16 | 43.27990 | 10.22257 | 36002 ft | 410 kts | 316° |
| 2026-05-08 16:16 | 43.31716 | 10.18244 | 36008 ft | 410 kts | 316° |
| 2026-05-08 16:17 | 43.36197 | 10.13402 | 36008 ft | 410 kts | 316° |
| 2026-05-08 16:17 | 43.41396 | 10.07757 | 36006 ft | 409 kts | 316° |
| 2026-05-08 16:18 | 43.45134 | 10.03701 | 36011 ft | 409 kts | 316° |
| 2026-05-08 16:18 | 43.49600 | 9.98838 | 36011 ft | 409 kts | 316° |
| 2026-05-08 16:19 | 43.54058 | 9.93967 | 36013 ft | 409 kts | 316° |
| 2026-05-08 16:19 | 43.58514 | 9.89088 | 36018 ft | 409 kts | 316° |
| 2026-05-08 16:20 | 43.62964 | 9.84206 | 36039 ft | 409 kts | 316° |
| 2026-05-08 16:20 | 43.67420 | 9.79321 | 36029 ft | 409 kts | 316° |
| 2026-05-08 16:21 | 43.71878 | 9.74424 | 36010 ft | 410 kts | 316° |
| 2026-05-08 16:21 | 43.76342 | 9.69514 | 36009 ft | 410 kts | 316° |
| 2026-05-08 16:22 | 43.80769 | 9.64616 | 36012 ft | 410 kts | 316° |
| 2026-05-08 16:22 | 43.85226 | 9.59679 | 36028 ft | 410 kts | 316° |
| 2026-05-08 16:23 | 43.89687 | 9.54744 | 36020 ft | 410 kts | 316° |
| 2026-05-08 16:23 | 43.94141 | 9.49799 | 36024 ft | 410 kts | 316° |
| 2026-05-08 16:24 | 43.98595 | 9.44850 | 36025 ft | 410 kts | 316° |
| 2026-05-08 16:24 | 44.03052 | 9.39891 | 36018 ft | 411 kts | 316° |
| 2026-05-08 16:25 | 44.07503 | 9.34913 | 36031 ft | 410 kts | 316° |
| 2026-05-08 16:25 | 44.11948 | 9.29933 | 36025 ft | 410 kts | 316° |
| 2026-05-08 16:26 | 44.16393 | 9.24949 | 36028 ft | 410 kts | 316° |
| 2026-05-08 16:26 | 44.20831 | 9.19961 | 36025 ft | 410 kts | 316° |
| 2026-05-08 16:27 | 44.25273 | 9.14954 | 36052 ft | 410 kts | 316° |
| 2026-05-08 16:27 | 44.29701 | 9.09954 | 36036 ft | 409 kts | 316° |
| 2026-05-08 16:28 | 44.34126 | 9.04953 | 36030 ft | 409 kts | 316° |
| 2026-05-08 16:28 | 44.38548 | 8.99953 | 36021 ft | 409 kts | 316° |
| 2026-05-08 16:29 | 44.42969 | 8.94937 | 36016 ft | 409 kts | 316° |
| 2026-05-08 16:29 | 44.47385 | 8.89913 | 36012 ft | 409 kts | 316° |
| 2026-05-08 16:30 | 44.51797 | 8.84896 | 36011 ft | 408 kts | 316° |
| 2026-05-08 16:30 | 44.56197 | 8.79870 | 36016 ft | 408 kts | 316° |
| 2026-05-08 16:31 | 44.60590 | 8.74835 | 36025 ft | 408 kts | 316° |
| 2026-05-08 16:31 | 44.64985 | 8.69794 | 36035 ft | 408 kts | 316° |
| 2026-05-08 16:32 | 44.69382 | 8.64732 | 36045 ft | 409 kts | 316° |
| 2026-05-08 16:32 | 44.73778 | 8.59668 | 36052 ft | 409 kts | 316° |
| 2026-05-08 16:33 | 44.78158 | 8.54634 | 36052 ft | 409 kts | 316° |
| 2026-05-08 16:33 | 44.82552 | 8.49559 | 36057 ft | 409 kts | 316° |
| 2026-05-08 16:34 | 44.86946 | 8.44464 | 36059 ft | 409 kts | 316° |
| 2026-05-08 16:34 | 44.91341 | 8.39355 | 36082 ft | 410 kts | 316° |
| 2026-05-08 16:35 | 44.95742 | 8.34230 | 36072 ft | 410 kts | 316° |
| 2026-05-08 16:35 | 45.00138 | 8.29101 | 36069 ft | 410 kts | 316° |
| 2026-05-08 16:36 | 45.04534 | 8.23970 | 36072 ft | 410 kts | 316° |
| 2026-05-08 16:36 | 45.08933 | 8.18826 | 36071 ft | 410 kts | 316° |
| 2026-05-08 16:37 | 45.13322 | 8.13674 | 36089 ft | 410 kts | 316° |
| 2026-05-08 16:37 | 45.17717 | 8.08519 | 36084 ft | 410 kts | 316° |
| 2026-05-08 16:38 | 45.22118 | 8.03379 | 36073 ft | 411 kts | 316° |
| 2026-05-08 16:38 | 45.26580 | 7.98299 | 36069 ft | 411 kts | 317° |
| 2026-05-08 16:39 | 45.31050 | 7.93238 | 36088 ft | 411 kts | 317° |
| 2026-05-08 16:39 | 45.35512 | 7.88145 | 36080 ft | 411 kts | 317° |
| 2026-05-08 16:40 | 45.39962 | 7.83051 | 36075 ft | 411 kts | 317° |
| 2026-05-08 16:40 | 45.41542 | 7.81240 | 36074 ft | 411 kts | 317° |
| 2026-05-08 16:41 | 45.44089 | 7.78316 | 36072 ft | 411 kts | 317° |
| 2026-05-08 16:42 | 45.50756 | 7.70636 | 36075 ft | 411 kts | 317° |
| 2026-05-08 16:42 | 45.55209 | 7.65507 | 36086 ft | 411 kts | 317° |
| 2026-05-08 16:43 | 45.59654 | 7.60379 | 36094 ft | 411 kts | 317° |
| 2026-05-08 16:43 | 45.64094 | 7.55236 | 36073 ft | 411 kts | 317° |
| 2026-05-08 16:44 | 45.68528 | 7.50077 | 36079 ft | 411 kts | 317° |
| 2026-05-08 16:44 | 45.72956 | 7.44916 | 36047 ft | 411 kts | 317° |
| 2026-05-08 16:45 | 45.77385 | 7.39748 | 36036 ft | 411 kts | 317° |
| 2026-05-08 16:45 | 45.81810 | 7.34575 | 36029 ft | 410 kts | 317° |
| 2026-05-08 16:46 | 45.86229 | 7.29402 | 36028 ft | 410 kts | 317° |
| 2026-05-08 16:46 | 45.90648 | 7.24225 | 36029 ft | 410 kts | 317° |
| 2026-05-08 16:47 | 45.95062 | 7.19035 | 36046 ft | 410 kts | 317° |
| 2026-05-08 16:47 | 45.99597 | 7.14033 | 36012 ft | 412 kts | 320° |
| 2026-05-08 16:48 | 46.04301 | 7.09321 | 35998 ft | 412 kts | 321° |
| 2026-05-08 16:48 | 46.09008 | 7.04624 | 35999 ft | 411 kts | 321° |
| 2026-05-08 16:49 | 46.13672 | 6.99852 | 35987 ft | 411 kts | 320° |
| 2026-05-08 16:49 | 46.18304 | 6.95049 | 36006 ft | 411 kts | 320° |
| 2026-05-08 16:50 | 46.22955 | 6.90234 | 36008 ft | 411 kts | 320° |
| 2026-05-08 16:50 | 46.27607 | 6.85426 | 36006 ft | 411 kts | 320° |
| 2026-05-08 16:51 | 46.32254 | 6.80608 | 35990 ft | 412 kts | 320° |
| 2026-05-08 16:51 | 46.36904 | 6.75759 | 35990 ft | 412 kts | 320° |
| 2026-05-08 16:52 | 46.41562 | 6.70897 | 35992 ft | 413 kts | 319° |
| 2026-05-08 16:52 | 46.45510 | 6.65021 | 35990 ft | 405 kts | 301° |
| 2026-05-08 16:53 | 46.49737 | 6.54490 | 35981 ft | 405 kts | 298° |
| 2026-05-08 16:53 | 46.52535 | 6.47405 | 35982 ft | 405 kts | 298° |
| 2026-05-08 16:54 | 46.55329 | 6.40291 | 35987 ft | 405 kts | 298° |
| 2026-05-08 16:54 | 46.58124 | 6.33180 | 35986 ft | 405 kts | 298° |
| 2026-05-08 16:55 | 46.60916 | 6.26063 | 35996 ft | 406 kts | 298° |
| 2026-05-08 16:55 | 46.63699 | 6.18925 | 35998 ft | 405 kts | 297° |
| 2026-05-08 16:56 | 46.66475 | 6.11779 | 36002 ft | 406 kts | 297° |
| 2026-05-08 16:56 | 46.69252 | 6.04636 | 36004 ft | 406 kts | 297° |
| 2026-05-08 16:57 | 46.72029 | 5.97480 | 35997 ft | 406 kts | 297° |
| 2026-05-08 16:57 | 46.74802 | 5.90306 | 35999 ft | 406 kts | 297° |
| 2026-05-08 16:58 | 46.77567 | 5.83136 | 35992 ft | 406 kts | 297° |
| 2026-05-08 16:58 | 46.80437 | 5.76048 | 35990 ft | 407 kts | 305° |
| 2026-05-08 16:59 | 46.84576 | 5.70360 | 36000 ft | 415 kts | 324° |
| 2026-05-08 16:59 | 46.89641 | 5.66240 | 35992 ft | 417 kts | 327° |
| 2026-05-08 17:00 | 46.94727 | 5.62149 | 35992 ft | 417 kts | 327° |
| 2026-05-08 17:00 | 46.99813 | 5.58045 | 35999 ft | 418 kts | 327° |
| 2026-05-08 17:01 | 47.04904 | 5.53934 | 36023 ft | 418 kts | 327° |
| 2026-05-08 17:01 | 47.09961 | 5.49848 | 36019 ft | 418 kts | 327° |
| 2026-05-08 17:02 | 47.15085 | 5.45715 | 36017 ft | 418 kts | 327° |
| 2026-05-08 17:02 | 47.20140 | 5.41615 | 36015 ft | 417 kts | 327° |
| 2026-05-08 17:03 | 47.25215 | 5.37475 | 36007 ft | 417 kts | 327° |
| 2026-05-08 17:03 | 47.30289 | 5.33339 | 36022 ft | 417 kts | 327° |
| 2026-05-08 17:04 | 47.35363 | 5.29202 | 36016 ft | 417 kts | 327° |
| 2026-05-08 17:04 | 47.40429 | 5.25060 | 36013 ft | 416 kts | 327° |
| 2026-05-08 17:05 | 47.44674 | 5.21576 | 35987 ft | 417 kts | 327° |
| 2026-05-08 17:05 | 47.47213 | 5.19485 | 35273 ft | 421 kts | 327° |
| 2026-05-08 17:05 | 47.49750 | 5.17392 | 34460 ft | 423 kts | 327° |
| 2026-05-08 17:06 | 47.52341 | 5.15253 | 33759 ft | 420 kts | 327° |
| 2026-05-08 17:06 | 47.54895 | 5.13149 | 32847 ft | 421 kts | 327° |
| 2026-05-08 17:06 | 47.57453 | 5.11045 | 32021 ft | 420 kts | 326° |
| 2026-05-08 17:06 | 47.59846 | 5.08679 | 31490 ft | 409 kts | 318° |
| 2026-05-08 17:07 | 47.62014 | 5.05989 | 30933 ft | 403 kts | 317° |
| 2026-05-08 17:07 | 47.64137 | 5.03329 | 30409 ft | 397 kts | 317° |
| 2026-05-08 17:07 | 47.66231 | 5.00696 | 29853 ft | 393 kts | 317° |
| 2026-05-08 17:07 | 47.68301 | 4.98088 | 29332 ft | 389 kts | 317° |
| 2026-05-08 17:08 | 47.70410 | 4.95420 | 28813 ft | 409 kts | 317° |
| 2026-05-08 17:08 | 47.72606 | 4.92637 | 28257 ft | 419 kts | 317° |
| 2026-05-08 17:08 | 47.74834 | 4.89824 | 27982 ft | 419 kts | 317° |
| 2026-05-08 17:08 | 47.76977 | 4.87130 | 28013 ft | 398 kts | 317° |
| 2026-05-08 17:09 | 47.79068 | 4.84503 | 28008 ft | 380 kts | 317° |
| 2026-05-08 17:09 | 47.81038 | 4.82014 | 28013 ft | 374 kts | 316° |
| 2026-05-08 17:09 | 47.84976 | 4.77001 | 28013 ft | 372 kts | 316° |
| 2026-05-08 17:10 | 47.88900 | 4.71989 | 28015 ft | 371 kts | 316° |
| 2026-05-08 17:10 | 47.92816 | 4.66987 | 28016 ft | 371 kts | 316° |
| 2026-05-08 17:11 | 47.96723 | 4.62000 | 28012 ft | 369 kts | 317° |
| 2026-05-08 17:11 | 48.00622 | 4.57004 | 28018 ft | 369 kts | 316° |
| 2026-05-08 17:12 | 48.04521 | 4.52006 | 28020 ft | 369 kts | 316° |
| 2026-05-08 17:12 | 48.08408 | 4.46995 | 28001 ft | 370 kts | 316° |
| 2026-05-08 17:13 | 48.10365 | 4.44467 | 27203 ft | 376 kts | 316° |
| 2026-05-08 17:13 | 48.12364 | 4.41880 | 26265 ft | 382 kts | 316° |
| 2026-05-08 17:13 | 48.14382 | 4.39271 | 25593 ft | 383 kts | 316° |
| 2026-05-08 17:13 | 48.16394 | 4.36671 | 24909 ft | 383 kts | 316° |
| 2026-05-08 17:14 | 48.18409 | 4.34065 | 24282 ft | 382 kts | 316° |
| 2026-05-08 17:14 | 48.20380 | 4.31410 | 23790 ft | 377 kts | 310° |
| 2026-05-08 17:14 | 48.22053 | 4.28465 | 23562 ft | 365 kts | 308° |
| 2026-05-08 17:14 | 48.23670 | 4.25596 | 23267 ft | 356 kts | 308° |
| 2026-05-08 17:15 | 48.25252 | 4.22800 | 22989 ft | 348 kts | 308° |
| 2026-05-08 17:15 | 48.26822 | 4.20059 | 22714 ft | 345 kts | 309° |
| 2026-05-08 17:15 | 48.28399 | 4.17349 | 22440 ft | 344 kts | 309° |
| 2026-05-08 17:15 | 48.29980 | 4.14643 | 22176 ft | 344 kts | 309° |
| 2026-05-08 17:16 | 48.31556 | 4.11940 | 21908 ft | 344 kts | 309° |
| 2026-05-08 17:16 | 48.33130 | 4.09237 | 21641 ft | 344 kts | 309° |
| 2026-05-08 17:16 | 48.34697 | 4.06538 | 21372 ft | 341 kts | 309° |
| 2026-05-08 17:16 | 48.36243 | 4.03876 | 20992 ft | 336 kts | 309° |
| 2026-05-08 17:17 | 48.37776 | 4.01231 | 20565 ft | 334 kts | 309° |
| 2026-05-08 17:17 | 48.39298 | 3.98599 | 20128 ft | 332 kts | 309° |
| 2026-05-08 17:17 | 48.40808 | 3.95982 | 19703 ft | 331 kts | 308° |
| 2026-05-08 17:17 | 48.42312 | 3.93373 | 19277 ft | 329 kts | 308° |
| 2026-05-08 17:18 | 48.43814 | 3.90766 | 18850 ft | 329 kts | 308° |
| 2026-05-08 17:18 | 48.45309 | 3.88166 | 18430 ft | 328 kts | 308° |
| 2026-05-08 17:18 | 48.46802 | 3.85572 | 17980 ft | 327 kts | 308° |
| 2026-05-08 17:18 | 48.48292 | 3.82983 | 17563 ft | 325 kts | 308° |
| 2026-05-08 17:19 | 48.49767 | 3.80416 | 17136 ft | 323 kts | 308° |
| 2026-05-08 17:19 | 48.51232 | 3.77862 | 16744 ft | 322 kts | 308° |
| 2026-05-08 17:19 | 48.52693 | 3.75313 | 16332 ft | 320 kts | 308° |
| 2026-05-08 17:19 | 48.54089 | 3.72741 | 16039 ft | 325 kts | 302° |
| 2026-05-08 17:20 | 48.55335 | 3.69848 | 16022 ft | 331 kts | 301° |
| 2026-05-08 17:20 | 48.56595 | 3.66904 | 15558 ft | 335 kts | 301° |
| 2026-05-08 17:20 | 48.57856 | 3.63977 | 15466 ft | 332 kts | 301° |
| 2026-05-08 17:20 | 48.59113 | 3.61061 | 15301 ft | 331 kts | 301° |
| 2026-05-08 17:21 | 48.60368 | 3.58143 | 15147 ft | 331 kts | 301° |
| 2026-05-08 17:21 | 48.61620 | 3.55229 | 14997 ft | 330 kts | 301° |
| 2026-05-08 17:21 | 48.62865 | 3.52322 | 15034 ft | 330 kts | 301° |
| 2026-05-08 17:21 | 48.64115 | 3.49402 | 15032 ft | 331 kts | 301° |
| 2026-05-08 17:22 | 48.65365 | 3.46482 | 15037 ft | 331 kts | 301° |
| 2026-05-08 17:22 | 48.66610 | 3.43563 | 15021 ft | 331 kts | 301° |
| 2026-05-08 17:22 | 48.67855 | 3.40639 | 15028 ft | 331 kts | 301° |
| 2026-05-08 17:22 | 48.69101 | 3.37718 | 15041 ft | 331 kts | 301° |
| 2026-05-08 17:23 | 48.70351 | 3.34790 | 15036 ft | 330 kts | 301° |
| 2026-05-08 17:23 | 48.71597 | 3.31866 | 15036 ft | 333 kts | 301° |
| 2026-05-08 17:23 | 48.72892 | 3.28818 | 15033 ft | 352 kts | 301° |
| 2026-05-08 17:23 | 48.74228 | 3.25670 | 15037 ft | 357 kts | 301° |
| 2026-05-08 17:24 | 48.75572 | 3.22504 | 15036 ft | 358 kts | 301° |
| 2026-05-08 17:24 | 48.76901 | 3.19370 | 15023 ft | 358 kts | 301° |
| 2026-05-08 17:24 | 48.78263 | 3.16153 | 15032 ft | 358 kts | 301° |
| 2026-05-08 17:24 | 48.79591 | 3.13007 | 15036 ft | 358 kts | 301° |
| 2026-05-08 17:25 | 48.80933 | 3.09822 | 15045 ft | 358 kts | 301° |
| 2026-05-08 17:25 | 48.82275 | 3.06637 | 15045 ft | 358 kts | 301° |
| 2026-05-08 17:25 | 48.83603 | 3.03481 | 15048 ft | 353 kts | 301° |
| 2026-05-08 17:25 | 48.85038 | 3.00463 | 15040 ft | 354 kts | 310° |
| 2026-05-08 17:26 | 48.86702 | 2.97706 | 15047 ft | 353 kts | 311° |
| 2026-05-08 17:26 | 48.88316 | 2.95034 | 15051 ft | 338 kts | 310° |
| 2026-05-08 17:26 | 48.89888 | 2.92422 | 15053 ft | 334 kts | 310° |
| 2026-05-08 17:26 | 48.91442 | 2.89835 | 15036 ft | 326 kts | 310° |
| 2026-05-08 17:27 | 48.92717 | 2.87102 | 15044 ft | 309 kts | 295° |
| 2026-05-08 17:27 | 48.93411 | 2.84061 | 15046 ft | 302 kts | 279° |
| 2026-05-08 17:27 | 48.93530 | 2.80898 | 15059 ft | 300 kts | 265° |
| 2026-05-08 17:27 | 48.93362 | 2.77736 | 15047 ft | 300 kts | 265° |
| 2026-05-08 17:28 | 48.93195 | 2.74573 | 15061 ft | 300 kts | 265° |
| 2026-05-08 17:28 | 48.93025 | 2.71405 | 15061 ft | 300 kts | 265° |
| 2026-05-08 17:28 | 48.92856 | 2.68245 | 15056 ft | 300 kts | 265° |
| 2026-05-08 17:28 | 48.92689 | 2.65122 | 15060 ft | 300 kts | 265° |
| 2026-05-08 17:29 | 48.92520 | 2.61961 | 15061 ft | 300 kts | 265° |
| 2026-05-08 17:29 | 48.92350 | 2.58799 | 15062 ft | 300 kts | 265° |
| 2026-05-08 17:29 | 48.92179 | 2.55629 | 15061 ft | 300 kts | 265° |
| 2026-05-08 17:29 | 48.92006 | 2.52468 | 15060 ft | 300 kts | 265° |
| 2026-05-08 17:30 | 48.91833 | 2.49305 | 15059 ft | 300 kts | 265° |
| 2026-05-08 17:30 | 48.91660 | 2.46139 | 15051 ft | 300 kts | 265° |
| 2026-05-08 17:30 | 48.91485 | 2.42973 | 15061 ft | 300 kts | 265° |
| 2026-05-08 17:30 | 48.91308 | 2.39807 | 15053 ft | 300 kts | 265° |
| 2026-05-08 17:31 | 48.91130 | 2.36643 | 15061 ft | 300 kts | 265° |
| 2026-05-08 17:31 | 48.90952 | 2.33478 | 14942 ft | 301 kts | 265° |
| 2026-05-08 17:31 | 48.90771 | 2.30305 | 14371 ft | 303 kts | 264° |
| 2026-05-08 17:31 | 48.90589 | 2.27104 | 13562 ft | 305 kts | 264° |
| 2026-05-08 17:32 | 48.90405 | 2.23877 | 12678 ft | 307 kts | 264° |
| 2026-05-08 17:32 | 48.90221 | 2.20652 | 11824 ft | 307 kts | 264° |
| 2026-05-08 17:32 | 48.90036 | 2.17423 | 11027 ft | 306 kts | 264° |
| 2026-05-08 17:32 | 48.89850 | 2.14220 | 10241 ft | 305 kts | 264° |
| 2026-05-08 17:33 | 48.89675 | 2.11079 | 9989 ft | 285 kts | 265° |
| 2026-05-08 17:33 | 48.89537 | 2.08189 | 9645 ft | 271 kts | 265° |
| 2026-05-08 17:33 | 48.89413 | 2.05335 | 8978 ft | 270 kts | 265° |
| 2026-05-08 17:33 | 48.89293 | 2.02507 | 8337 ft | 268 kts | 265° |
| 2026-05-08 17:34 | 48.89291 | 1.99698 | 7707 ft | 265 kts | 281° |
| 2026-05-08 17:34 | 48.90073 | 1.97288 | 7521 ft | 252 kts | 312° |
| 2026-05-08 17:34 | 48.91496 | 1.95848 | 7304 ft | 246 kts | 343° |
| 2026-05-08 17:34 | 48.93181 | 1.95539 | 6962 ft | 244 kts | 360° |
| 2026-05-08 17:35 | 48.94880 | 1.95579 | 6621 ft | 244 kts | 2° |
| 2026-05-08 17:35 | 48.96537 | 1.96027 | 6322 ft | 241 kts | 26° |
| 2026-05-08 17:35 | 48.97795 | 1.97636 | 6001 ft | 237 kts | 59° |
| 2026-05-08 17:35 | 48.98295 | 1.99968 | 5697 ft | 233 kts | 88° |
| 2026-05-08 17:36 | 48.98060 | 2.02381 | 5382 ft | 230 kts | 102° |
| 2026-05-08 17:36 | 48.97731 | 2.04764 | 5068 ft | 229 kts | 101° |
| 2026-05-08 17:36 | 48.97420 | 2.07084 | 5003 ft | 229 kts | 101° |
| 2026-05-08 17:36 | 48.97089 | 2.09465 | 5002 ft | 231 kts | 102° |
| 2026-05-08 17:37 | 48.96874 | 2.11884 | 5002 ft | 230 kts | 90° |
| 2026-05-08 17:37 | 48.96930 | 2.14303 | 5002 ft | 229 kts | 85° |
| 2026-05-08 17:37 | 48.97069 | 2.16720 | 5003 ft | 230 kts | 84° |
| 2026-05-08 17:37 | 48.97213 | 2.19145 | 5001 ft | 231 kts | 84° |
| 2026-05-08 17:38 | 48.97353 | 2.21589 | 4827 ft | 232 kts | 84° |
| 2026-05-08 17:38 | 48.97491 | 2.24024 | 4544 ft | 230 kts | 84° |
| 2026-05-08 17:38 | 48.97627 | 2.26429 | 4240 ft | 227 kts | 84° |
| 2026-05-08 17:38 | 48.97762 | 2.28808 | 3936 ft | 224 kts | 84° |
| 2026-05-08 17:39 | 48.97885 | 2.31011 | 3655 ft | 214 kts | 84° |
| 2026-05-08 17:39 | 48.98012 | 2.33275 | 3366 ft | 204 kts | 84° |
| 2026-05-08 17:39 | 48.98130 | 2.35384 | 3141 ft | 196 kts | 84° |
| 2026-05-08 17:39 | 48.98244 | 2.37431 | 2843 ft | 192 kts | 84° |
| 2026-05-08 17:40 | 48.98354 | 2.39423 | 2587 ft | 187 kts | 84° |
| 2026-05-08 17:40 | 48.98459 | 2.41342 | 2338 ft | 173 kts | 84° |
| 2026-05-08 17:40 | 48.98556 | 2.43088 | 2123 ft | 158 kts | 83° |
| 2026-05-08 17:40 | 48.98640 | 2.44646 | 1902 ft | 145 kts | 85° |
| 2026-05-08 17:41 | 48.98716 | 2.46163 | 1664 ft | 139 kts | 84° |
| 2026-05-08 17:41 | 48.98809 | 2.47595 | 1495 ft | 138 kts | 84° |
| 2026-05-08 17:41 | 48.98876 | 2.49051 | 1383 ft | 138 kts | 85° |
| 2026-05-08 17:41 | 48.98945 | 2.50508 | 1163 ft | 139 kts | 83° |
| 2026-05-08 17:42 | 48.99036 | 2.51949 | 983 ft | 137 kts | 83° |
| 2026-05-08 17:42 | 48.99126 | 2.53397 | 814 ft | 138 kts | 83° |
| 2026-05-08 17:42 | 48.99197 | 2.54841 | 629 ft | 136 kts | 82° |
| 2026-05-08 17:42 | 48.99282 | 2.56271 | 438 ft | 135 kts | 83° |
| 2026-05-08 17:43 | 48.99349 | 2.57632 | 352 ft | 114 kts | 85° |
| 2026-05-08 17:43 | 48.99400 | 2.58587 | 357 ft | 75 kts | 86° |
| 2026-05-08 17:43 | 48.99434 | 2.59133 | 353 ft | 32 kts | 72° |
| 2026-05-08 17:43 | 48.99515 | 2.59411 | 356 ft | 22 kts | 64° |
| 2026-05-08 17:44 | 48.99568 | 2.59580 | 357 ft | 17 kts | 65° |
| 2026-05-08 17:44 | 48.99632 | 2.59692 | 359 ft | 14 kts | 5° |
| 2026-05-08 17:44 | 48.99732 | 2.59680 | 354 ft | 15 kts | 357° |
| 2026-05-08 17:44 | 48.99849 | 2.59669 | 354 ft | 17 kts | 355° |
| 2026-05-08 17:45 | 48.99973 | 2.59653 | 354 ft | 19 kts | 355° |
| 2026-05-08 17:45 | 49.00110 | 2.59637 | 354 ft | 21 kts | 355° |
| 2026-05-08 17:45 | 49.00258 | 2.59621 | 354 ft | 22 kts | 355° |
| 2026-05-08 17:45 | 49.00412 | 2.59601 | 354 ft | 22 kts | 355° |
| 2026-05-08 17:46 | 49.00570 | 2.59580 | 354 ft | 23 kts | 355° |
| 2026-05-08 17:46 | 49.00731 | 2.59559 | 354 ft | 23 kts | 355° |
| 2026-05-08 17:46 | 49.00862 | 2.59544 | 354 ft | 16 kts | 355° |
| 2026-05-08 17:46 | 49.00962 | 2.59530 | 354 ft | 12 kts | 350° |
| 2026-05-08 17:47 | 49.01001 | 2.59432 | 360 ft | 13 kts | 268° |
| 2026-05-08 17:47 | 49.00994 | 2.59261 | 356 ft | 19 kts | 265° |
| 2026-05-08 17:47 | 49.00979 | 2.59066 | 357 ft | 16 kts | 255° |
| 2026-05-08 17:47 | 49.00960 | 2.58969 | 358 ft | 14 kts | 254° |
| 2026-05-08 17:48 | 49.00943 | 2.58789 | 354 ft | 12 kts | 264° |
| 2026-05-08 17:48 | 49.00937 | 2.58671 | 358 ft | 11 kts | 265° |
| 2026-05-08 17:48 | 49.00931 | 2.58565 | 354 ft | 9 kts | 265° |
| 2026-05-08 17:48 | 49.00928 | 2.58464 | 359 ft | 11 kts | 266° |
| 2026-05-08 17:49 | 49.00920 | 2.58327 | 354 ft | 12 kts | 265° |
| 2026-05-08 17:49 | 49.00913 | 2.58202 | 354 ft | 13 kts | 265° |
| 2026-05-08 17:49 | 49.00905 | 2.58045 | 354 ft | 15 kts | 265° |
| 2026-05-08 17:49 | 49.00897 | 2.57890 | 354 ft | 14 kts | 265° |
| 2026-05-08 17:50 | 49.00876 | 2.57751 | 357 ft | 13 kts | 230° |
| 2026-05-08 17:50 | 49.00818 | 2.57735 | 356 ft | 8 kts | 169° |
| 2026-05-08 17:50 | 49.00772 | 2.57772 | 356 ft | 7 kts | 160° |
| 2026-05-08 17:50 | 49.00748 | 2.57785 | 360 ft | 2 kts | 163° |
| 2026-05-08 17:51 | 49.00737 | 2.57790 | 354 ft | 2 kts | 163° |
| 2026-05-08 17:51 | 49.00731 | 2.57793 | 354 ft | 0 kts | 163° |